<?xml version="1.0" encoding="UTF-8" standalone="no" ?>
<gpx xmlns="http://www.topografix.com/GPX/1/1" xmlns:xsi="http://www.w3.org/2001/XMLSchema-instance" xsi:schemaLocation="http://www.topografix.com/GPX/1/1 http://www.topografix.com/GPX/1/1/gpx.xsd" version="1.1" creator="VisuGPX - https://www.visugpx.com">
  <metadata>
    <name>Les Canaux de Dorignies à Douai</name>
  </metadata>
  <wpt lat="50.38225" lon="3.09205">
    <ele>22.8</ele>
    <name><![CDATA[Parking de Gayant Expo]]></name>
  </wpt>
  <wpt lat="50.39027" lon="3.10255">
    <ele>28.7</ele>
    <name><![CDATA[tourner à droite]]></name>
  </wpt>
  <wpt lat="50.39033" lon="3.10089">
    <ele>21.4</ele>
    <name><![CDATA[Bifurcation à droite]]></name>
  </wpt>
  <wpt lat="50.39325" lon="3.10459">
    <ele>21.8</ele>
    <name><![CDATA[Pont du Fort]]></name>
  </wpt>
  <wpt lat="50.38969" lon="3.08192">
    <ele>23.6</ele>
    <name><![CDATA[Pont du Boulevard Lahure]]></name>
  </wpt>
  <wpt lat="50.39073" lon="3.08086">
    <ele>23.6</ele>
    <name><![CDATA[Pont du Polygone de Douai]]></name>
  </wpt>
  <wpt lat="50.39668" lon="3.07947">
    <ele>22</ele>
    <name><![CDATA[Rue vers le Pont de Flers]]></name>
  </wpt>
  <wpt lat="50.39794" lon="3.07944">
    <ele>26.4</ele>
    <name><![CDATA[Pont de Flers]]></name>
  </wpt>
  <wpt lat="50.3905" lon="3.07993">
    <ele>26.6</ele>
    <name><![CDATA[Pont du Polygone de Douai]]></name>
  </wpt>
  <wpt lat="50.37872" lon="3.08493">
    <ele>23.6</ele>
    <name><![CDATA[Bifurcation sur le Quai du Mariage]]></name>
  </wpt>
  <wpt lat="50.37944" lon="3.08351">
    <ele>25</ele>
    <name><![CDATA[Tour des Dames]]></name>
  </wpt>
  <wpt lat="50.37738" lon="3.08441">
    <ele>22.5</ele>
    <name><![CDATA[Pont de l'Esplanade]]></name>
  </wpt>
  <wpt lat="50.38517" lon="3.09029">
    <ele>22.4</ele>
    <name><![CDATA[Passerelle Jean-Claude Darnal]]></name>
  </wpt>
  <wpt lat="50.38228" lon="3.09201">
    <ele>22.7</ele>
    <name><![CDATA[Parking de Gayant Expo]]></name>
  </wpt>
  <trk>
    <name><![CDATA[Les Canaux de Dorignies à Douai]]></name>
    <extensions>
      <line xmlns="http://www.topografix.com/GPX/gpx_style/0/2">
        <color>0000FF</color>
        <width>4</width>
      </line>
    </extensions>
    <trkseg>
      <trkpt lat="50.38225" lon="3.09205">
        <ele>23</ele>
        <time>2021-11-08T11:22:52+01:00</time>
      </trkpt>
      <trkpt lat="50.38237" lon="3.09226">
        <ele>23</ele>
        <time>2021-11-08T11:23:26+01:00</time>
      </trkpt>
      <trkpt lat="50.38247" lon="3.0924">
        <ele>23</ele>
        <time>2021-12-11T10:14:17+01:00</time>
      </trkpt>
      <trkpt lat="50.38261" lon="3.09252">
        <ele>23</ele>
        <time>2021-11-08T11:23:57+01:00</time>
      </trkpt>
      <trkpt lat="50.38279" lon="3.09269">
        <ele>24</ele>
        <time>2021-11-08T11:26:55+01:00</time>
      </trkpt>
      <trkpt lat="50.38298" lon="3.09285">
        <ele>24</ele>
        <time>2021-11-08T11:27:19+01:00</time>
      </trkpt>
      <trkpt lat="50.38317" lon="3.09301">
        <ele>25</ele>
        <time>2021-11-08T11:28:29+01:00</time>
      </trkpt>
      <trkpt lat="50.3833" lon="3.09314">
        <ele>25</ele>
        <time>2021-11-08T11:28:46+01:00</time>
      </trkpt>
      <trkpt lat="50.38348" lon="3.0933">
        <ele>25</ele>
        <time>2021-12-11T10:14:47+01:00</time>
      </trkpt>
      <trkpt lat="50.38363" lon="3.09343">
        <ele>24</ele>
        <time>2021-11-08T11:29:09+01:00</time>
      </trkpt>
      <trkpt lat="50.38381" lon="3.09354">
        <ele>23</ele>
        <time>2021-11-08T11:29:24+01:00</time>
      </trkpt>
      <trkpt lat="50.38409" lon="3.09372">
        <ele>22</ele>
        <time>2021-11-08T11:29:42+01:00</time>
      </trkpt>
      <trkpt lat="50.38425" lon="3.0938">
        <ele>21</ele>
        <time>2021-11-08T11:30:02+01:00</time>
      </trkpt>
      <trkpt lat="50.38448" lon="3.0939">
        <ele>21</ele>
        <time>2021-11-08T11:30:18+01:00</time>
      </trkpt>
      <trkpt lat="50.38453" lon="3.09425">
        <ele>20</ele>
        <time>2021-11-08T11:30:50+01:00</time>
      </trkpt>
      <trkpt lat="50.38458" lon="3.0946">
        <ele>18</ele>
        <time>2021-11-08T11:31:52+01:00</time>
      </trkpt>
      <trkpt lat="50.38463" lon="3.09495">
        <ele>17</ele>
        <time>2021-11-08T11:34:59+01:00</time>
      </trkpt>
      <trkpt lat="50.38467" lon="3.09529">
        <ele>16</ele>
        <time>2021-11-08T11:35:32+01:00</time>
      </trkpt>
      <trkpt lat="50.38447" lon="3.09537">
        <ele>17</ele>
        <time>2021-11-08T11:36:44+01:00</time>
      </trkpt>
      <trkpt lat="50.38436" lon="3.09545">
        <ele>17</ele>
        <time>2021-12-11T10:15:42+01:00</time>
      </trkpt>
      <trkpt lat="50.38432" lon="3.09568">
        <ele>17</ele>
        <time>2021-11-08T11:37:07+01:00</time>
      </trkpt>
      <trkpt lat="50.38435" lon="3.09604">
        <ele>17</ele>
        <time>2021-11-08T11:37:27+01:00</time>
      </trkpt>
      <trkpt lat="50.38442" lon="3.09637">
        <ele>16</ele>
        <time>2021-11-08T11:37:46+01:00</time>
      </trkpt>
      <trkpt lat="50.38453" lon="3.09666">
        <ele>15</ele>
        <time>2021-11-08T11:38:04+01:00</time>
      </trkpt>
      <trkpt lat="50.38473" lon="3.09689">
        <ele>15</ele>
        <time>2021-11-08T11:38:24+01:00</time>
      </trkpt>
      <trkpt lat="50.38495" lon="3.09703">
        <ele>14</ele>
        <time>2021-11-08T11:38:42+01:00</time>
      </trkpt>
      <trkpt lat="50.38517" lon="3.09713">
        <ele>14</ele>
        <time>2021-11-08T11:39:00+01:00</time>
      </trkpt>
      <trkpt lat="50.38531" lon="3.09735">
        <ele>14</ele>
        <time>2021-11-08T11:40:43+01:00</time>
      </trkpt>
      <trkpt lat="50.38545" lon="3.09764">
        <ele>15</ele>
        <time>2021-11-08T11:41:33+01:00</time>
      </trkpt>
      <trkpt lat="50.38563" lon="3.09789">
        <ele>15</ele>
        <time>2021-11-08T11:41:53+01:00</time>
      </trkpt>
      <trkpt lat="50.38582" lon="3.0981">
        <ele>15</ele>
        <time>2021-11-08T11:42:12+01:00</time>
      </trkpt>
      <trkpt lat="50.386" lon="3.09833">
        <ele>15</ele>
        <time>2021-11-08T11:42:33+01:00</time>
      </trkpt>
      <trkpt lat="50.38619" lon="3.09851">
        <ele>15</ele>
        <time>2021-11-08T11:42:54+01:00</time>
      </trkpt>
      <trkpt lat="50.38637" lon="3.09873">
        <ele>15</ele>
        <time>2021-11-08T11:43:17+01:00</time>
      </trkpt>
      <trkpt lat="50.38657" lon="3.09894">
        <ele>15</ele>
        <time>2021-11-08T11:43:34+01:00</time>
      </trkpt>
      <trkpt lat="50.38675" lon="3.09911">
        <ele>15</ele>
        <time>2021-11-08T11:43:52+01:00</time>
      </trkpt>
      <trkpt lat="50.38694" lon="3.09935">
        <ele>16</ele>
        <time>2021-11-08T11:44:34+01:00</time>
      </trkpt>
      <trkpt lat="50.38711" lon="3.09958">
        <ele>17</ele>
        <time>2021-11-08T11:44:53+01:00</time>
      </trkpt>
      <trkpt lat="50.38729" lon="3.09979">
        <ele>17</ele>
        <time>2021-11-08T11:45:39+01:00</time>
      </trkpt>
      <trkpt lat="50.38749" lon="3.09996">
        <ele>18</ele>
        <time>2021-11-08T11:45:58+01:00</time>
      </trkpt>
      <trkpt lat="50.38772" lon="3.10019">
        <ele>18</ele>
        <time>2021-11-08T11:46:17+01:00</time>
      </trkpt>
      <trkpt lat="50.38788" lon="3.10035">
        <ele>18</ele>
        <time>2021-11-08T11:46:32+01:00</time>
      </trkpt>
      <trkpt lat="50.38805" lon="3.1006">
        <ele>18</ele>
        <time>2021-11-08T11:46:54+01:00</time>
      </trkpt>
      <trkpt lat="50.38829" lon="3.10077">
        <ele>17</ele>
        <time>2021-11-08T11:47:11+01:00</time>
      </trkpt>
      <trkpt lat="50.38848" lon="3.101">
        <ele>17</ele>
        <time>2021-11-08T11:47:29+01:00</time>
      </trkpt>
      <trkpt lat="50.38865" lon="3.10119">
        <ele>18</ele>
        <time>2021-11-08T11:47:49+01:00</time>
      </trkpt>
      <trkpt lat="50.38884" lon="3.10139">
        <ele>18</ele>
        <time>2021-11-08T11:48:09+01:00</time>
      </trkpt>
      <trkpt lat="50.38904" lon="3.10158">
        <ele>19</ele>
        <time>2021-11-08T11:48:55+01:00</time>
      </trkpt>
      <trkpt lat="50.38922" lon="3.10177">
        <ele>19</ele>
        <time>2021-11-08T11:52:51+01:00</time>
      </trkpt>
      <trkpt lat="50.38942" lon="3.102">
        <ele>20</ele>
        <time>2021-11-08T11:53:15+01:00</time>
      </trkpt>
      <trkpt lat="50.3896" lon="3.1022">
        <ele>20</ele>
        <time>2021-11-08T11:53:30+01:00</time>
      </trkpt>
      <trkpt lat="50.38976" lon="3.10236">
        <ele>20</ele>
        <time>2021-11-08T11:53:58+01:00</time>
      </trkpt>
      <trkpt lat="50.39005" lon="3.10246">
        <ele>21</ele>
        <time>2021-11-08T11:54:42+01:00</time>
      </trkpt>
      <trkpt lat="50.39027" lon="3.10255">
        <ele>22</ele>
        <time>2021-11-08T11:54:47+01:00</time>
      </trkpt>
      <trkpt lat="50.39041" lon="3.10272">
        <ele>23</ele>
        <time>2021-12-11T10:18:37+01:00</time>
      </trkpt>
      <trkpt lat="50.39055" lon="3.10289">
        <ele>24</ele>
        <time>2021-11-08T11:56:06+01:00</time>
      </trkpt>
      <trkpt lat="50.3907" lon="3.10309">
        <ele>25</ele>
        <time>2021-11-08T11:56:27+01:00</time>
      </trkpt>
      <trkpt lat="50.39087" lon="3.10329">
        <ele>25</ele>
        <time>2021-11-08T11:56:58+01:00</time>
      </trkpt>
      <trkpt lat="50.39101" lon="3.10342">
        <ele>25</ele>
        <time>2021-11-08T11:58:55+01:00</time>
      </trkpt>
      <trkpt lat="50.39115" lon="3.1036">
        <ele>25</ele>
        <time>2021-11-08T11:59:11+01:00</time>
      </trkpt>
      <trkpt lat="50.39135" lon="3.10384">
        <ele>25</ele>
        <time>2021-11-08T11:59:29+01:00</time>
      </trkpt>
      <trkpt lat="50.39152" lon="3.10406">
        <ele>26</ele>
        <time>2021-11-08T11:59:52+01:00</time>
      </trkpt>
      <trkpt lat="50.39168" lon="3.10429">
        <ele>26</ele>
        <time>2021-11-08T12:00:05+01:00</time>
      </trkpt>
      <trkpt lat="50.39188" lon="3.10445">
        <ele>25</ele>
        <time>2021-11-08T12:00:27+01:00</time>
      </trkpt>
      <trkpt lat="50.39207" lon="3.10461">
        <ele>25</ele>
        <time>2021-11-08T12:00:50+01:00</time>
      </trkpt>
      <trkpt lat="50.39232" lon="3.10473">
        <ele>26</ele>
        <time>2021-11-08T12:01:33+01:00</time>
      </trkpt>
      <trkpt lat="50.39242" lon="3.10469">
        <ele>26</ele>
        <time>2021-12-11T10:19:37+01:00</time>
      </trkpt>
      <trkpt lat="50.39254" lon="3.10457">
        <ele>26</ele>
        <time>2021-11-08T12:01:55+01:00</time>
      </trkpt>
      <trkpt lat="50.39261" lon="3.10433">
        <ele>25</ele>
        <time>2021-11-08T12:02:21+01:00</time>
      </trkpt>
      <trkpt lat="50.39258" lon="3.10404">
        <ele>25</ele>
        <time>2021-12-11T10:19:52+01:00</time>
      </trkpt>
      <trkpt lat="50.39243" lon="3.10385">
        <ele>25</ele>
        <time>2021-11-08T12:02:38+01:00</time>
      </trkpt>
      <trkpt lat="50.39225" lon="3.10361">
        <ele>25</ele>
        <time>2021-11-08T12:02:56+01:00</time>
      </trkpt>
      <trkpt lat="50.39208" lon="3.10338">
        <ele>26</ele>
        <time>2021-11-08T12:03:16+01:00</time>
      </trkpt>
      <trkpt lat="50.39191" lon="3.10314">
        <ele>26</ele>
        <time>2021-11-08T12:03:38+01:00</time>
      </trkpt>
      <trkpt lat="50.39173" lon="3.10289">
        <ele>25</ele>
        <time>2021-11-08T12:05:03+01:00</time>
      </trkpt>
      <trkpt lat="50.39157" lon="3.10265">
        <ele>25</ele>
        <time>2021-11-08T12:05:30+01:00</time>
      </trkpt>
      <trkpt lat="50.3914" lon="3.10242">
        <ele>24</ele>
        <time>2021-11-08T12:05:58+01:00</time>
      </trkpt>
      <trkpt lat="50.39121" lon="3.10219">
        <ele>24</ele>
        <time>2021-11-08T12:06:20+01:00</time>
      </trkpt>
      <trkpt lat="50.39106" lon="3.10196">
        <ele>24</ele>
        <time>2021-11-08T12:06:40+01:00</time>
      </trkpt>
      <trkpt lat="50.39087" lon="3.10177">
        <ele>23</ele>
        <time>2021-11-08T12:06:57+01:00</time>
      </trkpt>
      <trkpt lat="50.39071" lon="3.10155">
        <ele>22</ele>
        <time>2021-11-08T12:07:17+01:00</time>
      </trkpt>
      <trkpt lat="50.39049" lon="3.10134">
        <ele>21</ele>
        <time>2021-11-08T12:07:51+01:00</time>
      </trkpt>
      <trkpt lat="50.39039" lon="3.10116">
        <ele>20</ele>
        <time>2021-12-11T10:20:57+01:00</time>
      </trkpt>
      <trkpt lat="50.39033" lon="3.10089">
        <ele>19</ele>
        <time>2021-11-08T12:08:16+01:00</time>
      </trkpt>
      <trkpt lat="50.39044" lon="3.10081">
        <ele>20</ele>
        <time>2021-12-11T10:21:07+01:00</time>
      </trkpt>
      <trkpt lat="50.39067" lon="3.10107">
        <ele>21</ele>
        <time>2021-11-08T12:11:25+01:00</time>
      </trkpt>
      <trkpt lat="50.39082" lon="3.10128">
        <ele>22</ele>
        <time>2021-11-08T12:11:46+01:00</time>
      </trkpt>
      <trkpt lat="50.39101" lon="3.10148">
        <ele>23</ele>
        <time>2021-11-08T12:12:06+01:00</time>
      </trkpt>
      <trkpt lat="50.39121" lon="3.10172">
        <ele>23</ele>
        <time>2021-11-08T12:12:25+01:00</time>
      </trkpt>
      <trkpt lat="50.3914" lon="3.10197">
        <ele>23</ele>
        <time>2021-11-08T12:12:44+01:00</time>
      </trkpt>
      <trkpt lat="50.39157" lon="3.10218">
        <ele>24</ele>
        <time>2021-11-08T12:13:01+01:00</time>
      </trkpt>
      <trkpt lat="50.39174" lon="3.10245">
        <ele>24</ele>
        <time>2021-11-08T12:13:20+01:00</time>
      </trkpt>
      <trkpt lat="50.39191" lon="3.10269">
        <ele>24</ele>
        <time>2021-11-08T12:13:40+01:00</time>
      </trkpt>
      <trkpt lat="50.39208" lon="3.10291">
        <ele>25</ele>
        <time>2021-11-08T12:14:01+01:00</time>
      </trkpt>
      <trkpt lat="50.39227" lon="3.10317">
        <ele>25</ele>
        <time>2021-11-08T12:14:20+01:00</time>
      </trkpt>
      <trkpt lat="50.39244" lon="3.1034">
        <ele>24</ele>
        <time>2021-11-08T12:14:38+01:00</time>
      </trkpt>
      <trkpt lat="50.39258" lon="3.1036">
        <ele>24</ele>
        <time>2021-11-08T12:14:55+01:00</time>
      </trkpt>
      <trkpt lat="50.39276" lon="3.10382">
        <ele>24</ele>
        <time>2021-11-08T12:15:15+01:00</time>
      </trkpt>
      <trkpt lat="50.39293" lon="3.10408">
        <ele>24</ele>
        <time>2021-11-08T12:15:32+01:00</time>
      </trkpt>
      <trkpt lat="50.39309" lon="3.10432">
        <ele>23</ele>
        <time>2021-11-08T12:15:49+01:00</time>
      </trkpt>
      <trkpt lat="50.39325" lon="3.10459">
        <ele>22</ele>
        <time>2021-11-08T12:16:06+01:00</time>
      </trkpt>
      <trkpt lat="50.39342" lon="3.10482">
        <ele>22</ele>
        <time>2021-11-08T12:16:29+01:00</time>
      </trkpt>
      <trkpt lat="50.39361" lon="3.10507">
        <ele>21</ele>
        <time>2021-11-08T12:18:56+01:00</time>
      </trkpt>
      <trkpt lat="50.39353" lon="3.10518">
        <ele>21</ele>
        <time>2021-12-11T10:22:42+01:00</time>
      </trkpt>
      <trkpt lat="50.39334" lon="3.10496">
        <ele>22</ele>
        <time>2021-11-08T12:19:37+01:00</time>
      </trkpt>
      <trkpt lat="50.39319" lon="3.10477">
        <ele>23</ele>
        <time>2021-11-08T12:20:40+01:00</time>
      </trkpt>
      <trkpt lat="50.39338" lon="3.10443">
        <ele>22</ele>
        <time>2021-11-08T12:20:58+01:00</time>
      </trkpt>
      <trkpt lat="50.39357" lon="3.10411">
        <ele>22</ele>
        <time>2021-11-08T12:21:21+01:00</time>
      </trkpt>
      <trkpt lat="50.39376" lon="3.10382">
        <ele>22</ele>
        <time>2021-11-08T12:21:39+01:00</time>
      </trkpt>
      <trkpt lat="50.39395" lon="3.10353">
        <ele>22</ele>
        <time>2021-11-08T12:21:57+01:00</time>
      </trkpt>
      <trkpt lat="50.39389" lon="3.10348">
        <ele>22</ele>
        <time>2021-11-08T12:22:42+01:00</time>
      </trkpt>
      <trkpt lat="50.39368" lon="3.10383">
        <ele>22</ele>
        <time>2021-11-08T12:22:59+01:00</time>
      </trkpt>
      <trkpt lat="50.39352" lon="3.10411">
        <ele>22</ele>
        <time>2021-12-11T10:23:27+01:00</time>
      </trkpt>
      <trkpt lat="50.39337" lon="3.10393">
        <ele>22</ele>
        <time>2021-11-08T12:23:36+01:00</time>
      </trkpt>
      <trkpt lat="50.39317" lon="3.10373">
        <ele>23</ele>
        <time>2021-11-08T12:23:58+01:00</time>
      </trkpt>
      <trkpt lat="50.39298" lon="3.10351">
        <ele>23</ele>
        <time>2021-11-08T12:24:17+01:00</time>
      </trkpt>
      <trkpt lat="50.39279" lon="3.1033">
        <ele>24</ele>
        <time>2021-11-08T12:24:36+01:00</time>
      </trkpt>
      <trkpt lat="50.39263" lon="3.10306">
        <ele>24</ele>
        <time>2021-11-08T12:24:55+01:00</time>
      </trkpt>
      <trkpt lat="50.39244" lon="3.10283">
        <ele>24</ele>
        <time>2021-11-08T12:25:12+01:00</time>
      </trkpt>
      <trkpt lat="50.39227" lon="3.10261">
        <ele>23</ele>
        <time>2021-11-08T12:25:30+01:00</time>
      </trkpt>
      <trkpt lat="50.3921" lon="3.10236">
        <ele>23</ele>
        <time>2021-11-08T12:25:49+01:00</time>
      </trkpt>
      <trkpt lat="50.39192" lon="3.10212">
        <ele>24</ele>
        <time>2021-11-08T12:26:09+01:00</time>
      </trkpt>
      <trkpt lat="50.39176" lon="3.10187">
        <ele>23</ele>
        <time>2021-11-08T12:26:28+01:00</time>
      </trkpt>
      <trkpt lat="50.3916" lon="3.10161">
        <ele>23</ele>
        <time>2021-11-08T12:26:47+01:00</time>
      </trkpt>
      <trkpt lat="50.39144" lon="3.10136">
        <ele>23</ele>
        <time>2021-11-08T12:27:07+01:00</time>
      </trkpt>
      <trkpt lat="50.39128" lon="3.10112">
        <ele>22</ele>
        <time>2021-11-08T12:27:25+01:00</time>
      </trkpt>
      <trkpt lat="50.39108" lon="3.10089">
        <ele>22</ele>
        <time>2021-11-08T12:27:44+01:00</time>
      </trkpt>
      <trkpt lat="50.39095" lon="3.1007">
        <ele>21</ele>
        <time>2021-11-08T12:28:10+01:00</time>
      </trkpt>
      <trkpt lat="50.39095" lon="3.10021">
        <ele>22</ele>
        <time>2021-11-08T12:28:28+01:00</time>
      </trkpt>
      <trkpt lat="50.39086" lon="3.09987">
        <ele>22</ele>
        <time>2021-11-08T12:28:46+01:00</time>
      </trkpt>
      <trkpt lat="50.39071" lon="3.09958">
        <ele>22</ele>
        <time>2021-11-08T12:29:04+01:00</time>
      </trkpt>
      <trkpt lat="50.3905" lon="3.09943">
        <ele>22</ele>
        <time>2021-11-08T12:29:22+01:00</time>
      </trkpt>
      <trkpt lat="50.3903" lon="3.09939">
        <ele>22</ele>
        <time>2021-11-08T12:29:41+01:00</time>
      </trkpt>
      <trkpt lat="50.39006" lon="3.09949">
        <ele>21</ele>
        <time>2021-11-08T12:29:59+01:00</time>
      </trkpt>
      <trkpt lat="50.38986" lon="3.09927">
        <ele>21</ele>
        <time>2021-11-08T12:30:18+01:00</time>
      </trkpt>
      <trkpt lat="50.38975" lon="3.09903">
        <ele>21</ele>
        <time>2021-11-08T12:30:41+01:00</time>
      </trkpt>
      <trkpt lat="50.38968" lon="3.0988">
        <ele>21</ele>
        <time>2021-11-08T12:31:05+01:00</time>
      </trkpt>
      <trkpt lat="50.38942" lon="3.09845">
        <ele>21</ele>
        <time>2021-11-08T12:31:22+01:00</time>
      </trkpt>
      <trkpt lat="50.38924" lon="3.09821">
        <ele>21</ele>
        <time>2021-11-08T12:31:41+01:00</time>
      </trkpt>
      <trkpt lat="50.38905" lon="3.098">
        <ele>22</ele>
        <time>2021-11-08T12:32:01+01:00</time>
      </trkpt>
      <trkpt lat="50.38886" lon="3.0978">
        <ele>22</ele>
        <time>2021-11-08T12:32:20+01:00</time>
      </trkpt>
      <trkpt lat="50.38867" lon="3.0976">
        <ele>22</ele>
        <time>2021-11-08T12:32:39+01:00</time>
      </trkpt>
      <trkpt lat="50.38849" lon="3.09736">
        <ele>22</ele>
        <time>2021-11-08T12:32:59+01:00</time>
      </trkpt>
      <trkpt lat="50.38833" lon="3.09711">
        <ele>23</ele>
        <time>2021-11-08T12:33:42+01:00</time>
      </trkpt>
      <trkpt lat="50.38816" lon="3.09691">
        <ele>23</ele>
        <time>2021-11-08T12:34:00+01:00</time>
      </trkpt>
      <trkpt lat="50.38798" lon="3.09666">
        <ele>23</ele>
        <time>2021-11-08T12:34:20+01:00</time>
      </trkpt>
      <trkpt lat="50.3878" lon="3.09643">
        <ele>22</ele>
        <time>2021-11-08T12:34:39+01:00</time>
      </trkpt>
      <trkpt lat="50.38762" lon="3.0962">
        <ele>21</ele>
        <time>2021-11-08T12:34:57+01:00</time>
      </trkpt>
      <trkpt lat="50.38744" lon="3.09598">
        <ele>21</ele>
        <time>2021-11-08T12:35:15+01:00</time>
      </trkpt>
      <trkpt lat="50.38727" lon="3.09572">
        <ele>20</ele>
        <time>2021-11-08T12:35:33+01:00</time>
      </trkpt>
      <trkpt lat="50.3871" lon="3.09549">
        <ele>20</ele>
        <time>2021-11-08T12:35:50+01:00</time>
      </trkpt>
      <trkpt lat="50.38691" lon="3.09524">
        <ele>19</ele>
        <time>2021-11-08T12:36:07+01:00</time>
      </trkpt>
      <trkpt lat="50.38673" lon="3.095">
        <ele>19</ele>
        <time>2021-11-08T12:36:25+01:00</time>
      </trkpt>
      <trkpt lat="50.38654" lon="3.09475">
        <ele>19</ele>
        <time>2021-11-08T12:36:43+01:00</time>
      </trkpt>
      <trkpt lat="50.38639" lon="3.09452">
        <ele>19</ele>
        <time>2021-11-08T12:37:03+01:00</time>
      </trkpt>
      <trkpt lat="50.38624" lon="3.09425">
        <ele>20</ele>
        <time>2021-11-08T12:37:19+01:00</time>
      </trkpt>
      <trkpt lat="50.38611" lon="3.09398">
        <ele>20</ele>
        <time>2021-11-08T12:37:40+01:00</time>
      </trkpt>
      <trkpt lat="50.386" lon="3.09366">
        <ele>21</ele>
        <time>2021-11-08T12:37:59+01:00</time>
      </trkpt>
      <trkpt lat="50.38591" lon="3.09334">
        <ele>21</ele>
        <time>2021-11-08T12:38:19+01:00</time>
      </trkpt>
      <trkpt lat="50.38587" lon="3.09299">
        <ele>22</ele>
        <time>2021-11-08T12:39:11+01:00</time>
      </trkpt>
      <trkpt lat="50.3858" lon="3.09264">
        <ele>23</ele>
        <time>2021-11-08T12:39:29+01:00</time>
      </trkpt>
      <trkpt lat="50.38575" lon="3.0923">
        <ele>24</ele>
        <time>2021-11-08T12:39:49+01:00</time>
      </trkpt>
      <trkpt lat="50.38571" lon="3.09197">
        <ele>24</ele>
        <time>2021-11-08T12:40:08+01:00</time>
      </trkpt>
      <trkpt lat="50.38566" lon="3.09164">
        <ele>23</ele>
        <time>2021-11-08T12:40:28+01:00</time>
      </trkpt>
      <trkpt lat="50.38561" lon="3.09121">
        <ele>22</ele>
        <time>2021-11-08T12:40:45+01:00</time>
      </trkpt>
      <trkpt lat="50.38551" lon="3.09096">
        <ele>22</ele>
        <time>2021-11-08T12:41:03+01:00</time>
      </trkpt>
      <trkpt lat="50.38547" lon="3.09062">
        <ele>22</ele>
        <time>2021-11-08T12:41:25+01:00</time>
      </trkpt>
      <trkpt lat="50.38542" lon="3.09027">
        <ele>21</ele>
        <time>2021-11-08T12:41:46+01:00</time>
      </trkpt>
      <trkpt lat="50.38536" lon="3.08991">
        <ele>22</ele>
        <time>2021-11-08T12:42:06+01:00</time>
      </trkpt>
      <trkpt lat="50.38531" lon="3.08956">
        <ele>23</ele>
        <time>2021-11-08T12:42:23+01:00</time>
      </trkpt>
      <trkpt lat="50.38529" lon="3.08937">
        <ele>23</ele>
        <time>2021-12-11T10:28:17+01:00</time>
      </trkpt>
      <trkpt lat="50.38522" lon="3.08921">
        <ele>24</ele>
        <time>2021-11-08T12:42:42+01:00</time>
      </trkpt>
      <trkpt lat="50.38517" lon="3.08886">
        <ele>25</ele>
        <time>2021-11-08T12:43:26+01:00</time>
      </trkpt>
      <trkpt lat="50.38515" lon="3.08856">
        <ele>25</ele>
        <time>2021-11-08T12:43:42+01:00</time>
      </trkpt>
      <trkpt lat="50.38516" lon="3.08814">
        <ele>25</ele>
        <time>2021-11-08T12:44:00+01:00</time>
      </trkpt>
      <trkpt lat="50.38519" lon="3.08772">
        <ele>24</ele>
        <time>2021-11-08T12:44:20+01:00</time>
      </trkpt>
      <trkpt lat="50.3853" lon="3.08742">
        <ele>23</ele>
        <time>2021-11-08T12:44:38+01:00</time>
      </trkpt>
      <trkpt lat="50.38545" lon="3.08712">
        <ele>23</ele>
        <time>2021-11-08T12:44:56+01:00</time>
      </trkpt>
      <trkpt lat="50.3856" lon="3.08693">
        <ele>22</ele>
        <time>2021-11-08T12:45:17+01:00</time>
      </trkpt>
      <trkpt lat="50.38581" lon="3.08674">
        <ele>22</ele>
        <time>2021-11-08T12:45:34+01:00</time>
      </trkpt>
      <trkpt lat="50.38599" lon="3.08655">
        <ele>22</ele>
        <time>2021-11-08T12:45:56+01:00</time>
      </trkpt>
      <trkpt lat="50.3862" lon="3.0864">
        <ele>21</ele>
        <time>2021-11-08T12:46:15+01:00</time>
      </trkpt>
      <trkpt lat="50.38643" lon="3.08623">
        <ele>21</ele>
        <time>2021-11-08T12:46:40+01:00</time>
      </trkpt>
      <trkpt lat="50.38661" lon="3.0861">
        <ele>20</ele>
        <time>2021-11-08T12:46:59+01:00</time>
      </trkpt>
      <trkpt lat="50.38682" lon="3.08597">
        <ele>21</ele>
        <time>2021-11-08T12:48:11+01:00</time>
      </trkpt>
      <trkpt lat="50.38704" lon="3.08583">
        <ele>22</ele>
        <time>2021-11-08T12:48:30+01:00</time>
      </trkpt>
      <trkpt lat="50.38726" lon="3.08568">
        <ele>23</ele>
        <time>2021-11-08T12:48:49+01:00</time>
      </trkpt>
      <trkpt lat="50.38747" lon="3.08553">
        <ele>24</ele>
        <time>2021-11-08T12:49:10+01:00</time>
      </trkpt>
      <trkpt lat="50.38769" lon="3.08539">
        <ele>24</ele>
        <time>2021-11-08T12:49:28+01:00</time>
      </trkpt>
      <trkpt lat="50.38792" lon="3.08526">
        <ele>24</ele>
        <time>2021-11-08T12:49:45+01:00</time>
      </trkpt>
      <trkpt lat="50.38812" lon="3.08511">
        <ele>25</ele>
        <time>2021-11-08T12:50:03+01:00</time>
      </trkpt>
      <trkpt lat="50.38833" lon="3.08498">
        <ele>25</ele>
        <time>2021-11-08T12:50:29+01:00</time>
      </trkpt>
      <trkpt lat="50.38853" lon="3.08483">
        <ele>24</ele>
        <time>2021-11-08T12:50:48+01:00</time>
      </trkpt>
      <trkpt lat="50.38875" lon="3.08472">
        <ele>24</ele>
        <time>2021-11-08T12:51:09+01:00</time>
      </trkpt>
      <trkpt lat="50.38897" lon="3.08458">
        <ele>23</ele>
        <time>2021-11-08T12:51:27+01:00</time>
      </trkpt>
      <trkpt lat="50.38919" lon="3.08442">
        <ele>22</ele>
        <time>2021-11-08T12:51:47+01:00</time>
      </trkpt>
      <trkpt lat="50.38939" lon="3.0843">
        <ele>22</ele>
        <time>2021-11-08T12:52:05+01:00</time>
      </trkpt>
      <trkpt lat="50.38959" lon="3.08416">
        <ele>23</ele>
        <time>2021-11-08T12:52:24+01:00</time>
      </trkpt>
      <trkpt lat="50.38974" lon="3.08401">
        <ele>23</ele>
        <time>2021-11-08T12:52:44+01:00</time>
      </trkpt>
      <trkpt lat="50.38987" lon="3.08366">
        <ele>23</ele>
        <time>2021-11-08T12:53:02+01:00</time>
      </trkpt>
      <trkpt lat="50.38989" lon="3.08332">
        <ele>24</ele>
        <time>2021-11-08T12:53:20+01:00</time>
      </trkpt>
      <trkpt lat="50.38986" lon="3.08297">
        <ele>24</ele>
        <time>2021-11-08T12:54:25+01:00</time>
      </trkpt>
      <trkpt lat="50.38981" lon="3.08262">
        <ele>24</ele>
        <time>2021-11-08T12:54:54+01:00</time>
      </trkpt>
      <trkpt lat="50.38976" lon="3.08231">
        <ele>23</ele>
        <time>2021-11-08T12:55:11+01:00</time>
      </trkpt>
      <trkpt lat="50.38969" lon="3.08192">
        <ele>23</ele>
        <time>2021-11-08T12:55:37+01:00</time>
      </trkpt>
      <trkpt lat="50.38968" lon="3.08171">
        <ele>22</ele>
        <time>2021-12-11T10:31:12+01:00</time>
      </trkpt>
      <trkpt lat="50.38973" lon="3.08156">
        <ele>22</ele>
        <time>2021-11-08T12:55:53+01:00</time>
      </trkpt>
      <trkpt lat="50.38983" lon="3.0813">
        <ele>23</ele>
        <time>2021-11-08T12:56:12+01:00</time>
      </trkpt>
      <trkpt lat="50.38993" lon="3.08112">
        <ele>23</ele>
        <time>2021-12-11T10:31:27+01:00</time>
      </trkpt>
      <trkpt lat="50.39009" lon="3.08107">
        <ele>23</ele>
        <time>2021-11-08T12:56:35+01:00</time>
      </trkpt>
      <trkpt lat="50.39029" lon="3.08104">
        <ele>23</ele>
        <time>2021-11-08T12:57:12+01:00</time>
      </trkpt>
      <trkpt lat="50.39052" lon="3.08098">
        <ele>24</ele>
        <time>2021-11-08T12:58:38+01:00</time>
      </trkpt>
      <trkpt lat="50.39073" lon="3.08086">
        <ele>24</ele>
        <time>2021-11-08T12:58:51+01:00</time>
      </trkpt>
      <trkpt lat="50.39095" lon="3.08078">
        <ele>24</ele>
        <time>2021-11-08T12:59:41+01:00</time>
      </trkpt>
      <trkpt lat="50.39118" lon="3.08072">
        <ele>24</ele>
        <time>2021-11-08T13:00:00+01:00</time>
      </trkpt>
      <trkpt lat="50.39143" lon="3.08065">
        <ele>24</ele>
        <time>2021-11-08T13:00:26+01:00</time>
      </trkpt>
      <trkpt lat="50.39168" lon="3.0806">
        <ele>24</ele>
        <time>2021-11-08T13:00:43+01:00</time>
      </trkpt>
      <trkpt lat="50.39187" lon="3.08054">
        <ele>23</ele>
        <time>2021-11-08T13:01:00+01:00</time>
      </trkpt>
      <trkpt lat="50.39209" lon="3.08048">
        <ele>23</ele>
        <time>2021-11-08T13:01:20+01:00</time>
      </trkpt>
      <trkpt lat="50.39232" lon="3.08043">
        <ele>23</ele>
        <time>2021-11-08T13:01:38+01:00</time>
      </trkpt>
      <trkpt lat="50.39255" lon="3.08035">
        <ele>22</ele>
        <time>2021-11-08T13:01:59+01:00</time>
      </trkpt>
      <trkpt lat="50.39278" lon="3.0803">
        <ele>22</ele>
        <time>2021-11-08T13:02:17+01:00</time>
      </trkpt>
      <trkpt lat="50.39302" lon="3.08027">
        <ele>22</ele>
        <time>2021-11-08T13:02:36+01:00</time>
      </trkpt>
      <trkpt lat="50.39329" lon="3.08021">
        <ele>22</ele>
        <time>2021-11-08T13:02:53+01:00</time>
      </trkpt>
      <trkpt lat="50.39347" lon="3.08017">
        <ele>22</ele>
        <time>2021-11-08T13:03:14+01:00</time>
      </trkpt>
      <trkpt lat="50.3937" lon="3.08012">
        <ele>22</ele>
        <time>2021-11-08T13:03:33+01:00</time>
      </trkpt>
      <trkpt lat="50.39392" lon="3.08005">
        <ele>23</ele>
        <time>2021-11-08T13:03:51+01:00</time>
      </trkpt>
      <trkpt lat="50.39414" lon="3.08001">
        <ele>23</ele>
        <time>2021-11-08T13:04:07+01:00</time>
      </trkpt>
      <trkpt lat="50.39435" lon="3.07998">
        <ele>23</ele>
        <time>2021-11-08T13:04:25+01:00</time>
      </trkpt>
      <trkpt lat="50.39459" lon="3.0799">
        <ele>23</ele>
        <time>2021-11-08T13:04:44+01:00</time>
      </trkpt>
      <trkpt lat="50.39484" lon="3.07986">
        <ele>24</ele>
        <time>2021-11-08T13:05:01+01:00</time>
      </trkpt>
      <trkpt lat="50.39506" lon="3.07982">
        <ele>24</ele>
        <time>2021-11-08T13:05:20+01:00</time>
      </trkpt>
      <trkpt lat="50.3953" lon="3.07977">
        <ele>23</ele>
        <time>2021-11-08T13:05:39+01:00</time>
      </trkpt>
      <trkpt lat="50.39552" lon="3.07971">
        <ele>23</ele>
        <time>2021-11-08T13:05:58+01:00</time>
      </trkpt>
      <trkpt lat="50.39576" lon="3.07965">
        <ele>23</ele>
        <time>2021-11-08T13:06:15+01:00</time>
      </trkpt>
      <trkpt lat="50.39598" lon="3.07961">
        <ele>23</ele>
        <time>2021-11-08T13:06:33+01:00</time>
      </trkpt>
      <trkpt lat="50.39621" lon="3.07956">
        <ele>22</ele>
        <time>2021-11-08T13:06:51+01:00</time>
      </trkpt>
      <trkpt lat="50.39645" lon="3.07953">
        <ele>22</ele>
        <time>2021-11-08T13:07:09+01:00</time>
      </trkpt>
      <trkpt lat="50.39668" lon="3.07947">
        <ele>22</ele>
        <time>2021-11-08T13:07:28+01:00</time>
      </trkpt>
      <trkpt lat="50.39691" lon="3.0795">
        <ele>23</ele>
        <time>2021-11-08T13:07:51+01:00</time>
      </trkpt>
      <trkpt lat="50.39714" lon="3.07948">
        <ele>23</ele>
        <time>2021-11-08T13:08:09+01:00</time>
      </trkpt>
      <trkpt lat="50.39737" lon="3.07949">
        <ele>23</ele>
        <time>2021-11-08T13:08:32+01:00</time>
      </trkpt>
      <trkpt lat="50.39759" lon="3.07947">
        <ele>23</ele>
        <time>2021-11-08T13:08:51+01:00</time>
      </trkpt>
      <trkpt lat="50.39778" lon="3.07949">
        <ele>24</ele>
        <time>2021-12-11T10:34:22+01:00</time>
      </trkpt>
      <trkpt lat="50.39794" lon="3.07944">
        <ele>24</ele>
        <time>2021-11-08T13:09:13+01:00</time>
      </trkpt>
      <trkpt lat="50.39793" lon="3.07914">
        <ele>24</ele>
        <time>2021-11-08T13:09:35+01:00</time>
      </trkpt>
      <trkpt lat="50.3979" lon="3.07879">
        <ele>24</ele>
        <time>2021-11-08T13:09:53+01:00</time>
      </trkpt>
      <trkpt lat="50.39786" lon="3.07837">
        <ele>24</ele>
        <time>2021-11-08T13:10:14+01:00</time>
      </trkpt>
      <trkpt lat="50.3976" lon="3.07845">
        <ele>23</ele>
        <time>2021-11-08T13:10:35+01:00</time>
      </trkpt>
      <trkpt lat="50.39734" lon="3.07858">
        <ele>23</ele>
        <time>2021-11-08T13:11:05+01:00</time>
      </trkpt>
      <trkpt lat="50.39715" lon="3.07874">
        <ele>23</ele>
        <time>2021-11-08T13:11:25+01:00</time>
      </trkpt>
      <trkpt lat="50.39693" lon="3.07881">
        <ele>22</ele>
        <time>2021-11-08T13:13:09+01:00</time>
      </trkpt>
      <trkpt lat="50.3967" lon="3.07885">
        <ele>22</ele>
        <time>2021-11-08T13:13:30+01:00</time>
      </trkpt>
      <trkpt lat="50.39647" lon="3.0789">
        <ele>22</ele>
        <time>2021-11-08T13:13:48+01:00</time>
      </trkpt>
      <trkpt lat="50.39625" lon="3.07894">
        <ele>22</ele>
        <time>2021-11-08T13:14:07+01:00</time>
      </trkpt>
      <trkpt lat="50.39602" lon="3.079">
        <ele>22</ele>
        <time>2021-11-08T13:14:25+01:00</time>
      </trkpt>
      <trkpt lat="50.39588" lon="3.07874">
        <ele>22</ele>
        <time>2021-11-08T13:14:48+01:00</time>
      </trkpt>
      <trkpt lat="50.39598" lon="3.07841">
        <ele>23</ele>
        <time>2021-11-08T13:15:07+01:00</time>
      </trkpt>
      <trkpt lat="50.39583" lon="3.0782">
        <ele>24</ele>
        <time>2021-11-08T13:15:32+01:00</time>
      </trkpt>
      <trkpt lat="50.39556" lon="3.07826">
        <ele>24</ele>
        <time>2021-11-08T13:15:48+01:00</time>
      </trkpt>
      <trkpt lat="50.39531" lon="3.07832">
        <ele>24</ele>
        <time>2021-11-08T13:16:09+01:00</time>
      </trkpt>
      <trkpt lat="50.39509" lon="3.07838">
        <ele>24</ele>
        <time>2021-11-08T13:16:27+01:00</time>
      </trkpt>
      <trkpt lat="50.39486" lon="3.07841">
        <ele>24</ele>
        <time>2021-11-08T13:16:47+01:00</time>
      </trkpt>
      <trkpt lat="50.39463" lon="3.07846">
        <ele>23</ele>
        <time>2021-11-08T13:17:06+01:00</time>
      </trkpt>
      <trkpt lat="50.39441" lon="3.07853">
        <ele>23</ele>
        <time>2021-11-08T13:17:26+01:00</time>
      </trkpt>
      <trkpt lat="50.39417" lon="3.07857">
        <ele>22</ele>
        <time>2021-11-08T13:17:45+01:00</time>
      </trkpt>
      <trkpt lat="50.39393" lon="3.07861">
        <ele>22</ele>
        <time>2021-11-08T13:18:05+01:00</time>
      </trkpt>
      <trkpt lat="50.39371" lon="3.07867">
        <ele>22</ele>
        <time>2021-11-08T13:18:18+01:00</time>
      </trkpt>
      <trkpt lat="50.3935" lon="3.07872">
        <ele>22</ele>
        <time>2021-11-08T13:18:39+01:00</time>
      </trkpt>
      <trkpt lat="50.39328" lon="3.07876">
        <ele>22</ele>
        <time>2021-11-08T13:19:02+01:00</time>
      </trkpt>
      <trkpt lat="50.39302" lon="3.07881">
        <ele>22</ele>
        <time>2021-11-08T13:19:22+01:00</time>
      </trkpt>
      <trkpt lat="50.39282" lon="3.07887">
        <ele>22</ele>
        <time>2021-11-08T13:19:39+01:00</time>
      </trkpt>
      <trkpt lat="50.39257" lon="3.07891">
        <ele>22</ele>
        <time>2021-11-08T13:19:57+01:00</time>
      </trkpt>
      <trkpt lat="50.39235" lon="3.07897">
        <ele>22</ele>
        <time>2021-11-08T13:20:20+01:00</time>
      </trkpt>
      <trkpt lat="50.39212" lon="3.07902">
        <ele>22</ele>
        <time>2021-11-08T13:20:40+01:00</time>
      </trkpt>
      <trkpt lat="50.39193" lon="3.07907">
        <ele>22</ele>
        <time>2021-11-08T13:20:59+01:00</time>
      </trkpt>
      <trkpt lat="50.39168" lon="3.07911">
        <ele>22</ele>
        <time>2021-11-08T13:21:20+01:00</time>
      </trkpt>
      <trkpt lat="50.39146" lon="3.07917">
        <ele>23</ele>
        <time>2021-11-08T13:21:41+01:00</time>
      </trkpt>
      <trkpt lat="50.39123" lon="3.07922">
        <ele>24</ele>
        <time>2021-11-08T13:21:59+01:00</time>
      </trkpt>
      <trkpt lat="50.39101" lon="3.07927">
        <ele>24</ele>
        <time>2021-11-08T13:22:17+01:00</time>
      </trkpt>
      <trkpt lat="50.39086" lon="3.07936">
        <ele>25</ele>
        <time>2021-11-08T13:22:33+01:00</time>
      </trkpt>
      <trkpt lat="50.39077" lon="3.07955">
        <ele>24</ele>
        <time>2021-12-11T10:37:32+01:00</time>
      </trkpt>
      <trkpt lat="50.39065" lon="3.07984">
        <ele>24</ele>
        <time>2021-11-08T13:22:52+01:00</time>
      </trkpt>
      <trkpt lat="50.3905" lon="3.07993">
        <ele>23</ele>
        <time>2021-11-08T13:23:25+01:00</time>
      </trkpt>
      <trkpt lat="50.39053" lon="3.08011">
        <ele>23</ele>
        <time>2021-11-08T13:23:46+01:00</time>
      </trkpt>
      <trkpt lat="50.39062" lon="3.08044">
        <ele>24</ele>
        <time>2021-11-08T13:24:16+01:00</time>
      </trkpt>
      <trkpt lat="50.39071" lon="3.08077">
        <ele>24</ele>
        <time>2021-11-08T13:24:49+01:00</time>
      </trkpt>
      <trkpt lat="50.39076" lon="3.08105">
        <ele>24</ele>
        <time>2021-12-11T10:38:02+01:00</time>
      </trkpt>
      <trkpt lat="50.39063" lon="3.08117">
        <ele>24</ele>
        <time>2021-11-08T13:25:18+01:00</time>
      </trkpt>
      <trkpt lat="50.39042" lon="3.08132">
        <ele>23</ele>
        <time>2021-11-08T13:25:36+01:00</time>
      </trkpt>
      <trkpt lat="50.39019" lon="3.08149">
        <ele>23</ele>
        <time>2021-11-08T13:25:57+01:00</time>
      </trkpt>
      <trkpt lat="50.38999" lon="3.08166">
        <ele>22</ele>
        <time>2021-11-08T13:26:24+01:00</time>
      </trkpt>
      <trkpt lat="50.38977" lon="3.08179">
        <ele>22</ele>
        <time>2021-11-08T13:26:45+01:00</time>
      </trkpt>
      <trkpt lat="50.38959" lon="3.0819">
        <ele>23</ele>
        <time>2021-11-08T13:27:06+01:00</time>
      </trkpt>
      <trkpt lat="50.38941" lon="3.08205">
        <ele>23</ele>
        <time>2021-11-08T13:27:19+01:00</time>
      </trkpt>
      <trkpt lat="50.38928" lon="3.08218">
        <ele>22</ele>
        <time>2021-12-11T10:38:42+01:00</time>
      </trkpt>
      <trkpt lat="50.38924" lon="3.08245">
        <ele>22</ele>
        <time>2021-11-08T13:27:40+01:00</time>
      </trkpt>
      <trkpt lat="50.38919" lon="3.08275">
        <ele>22</ele>
        <time>2021-11-08T13:28:24+01:00</time>
      </trkpt>
      <trkpt lat="50.38914" lon="3.08303">
        <ele>21</ele>
        <time>2021-11-08T13:29:18+01:00</time>
      </trkpt>
      <trkpt lat="50.38906" lon="3.08332">
        <ele>21</ele>
        <time>2021-11-08T13:29:38+01:00</time>
      </trkpt>
      <trkpt lat="50.38899" lon="3.08356">
        <ele>22</ele>
        <time>2021-11-08T13:29:56+01:00</time>
      </trkpt>
      <trkpt lat="50.38887" lon="3.08381">
        <ele>23</ele>
        <time>2021-11-08T13:30:18+01:00</time>
      </trkpt>
      <trkpt lat="50.38868" lon="3.08401">
        <ele>24</ele>
        <time>2021-11-08T13:30:37+01:00</time>
      </trkpt>
      <trkpt lat="50.38853" lon="3.08419">
        <ele>24</ele>
        <time>2021-12-11T10:39:22+01:00</time>
      </trkpt>
      <trkpt lat="50.38843" lon="3.08392">
        <ele>24</ele>
        <time>2021-11-08T13:30:55+01:00</time>
      </trkpt>
      <trkpt lat="50.38824" lon="3.08377">
        <ele>25</ele>
        <time>2021-11-08T13:31:20+01:00</time>
      </trkpt>
      <trkpt lat="50.38798" lon="3.08393">
        <ele>25</ele>
        <time>2021-11-08T13:31:36+01:00</time>
      </trkpt>
      <trkpt lat="50.38777" lon="3.08408">
        <ele>26</ele>
        <time>2021-11-08T13:32:05+01:00</time>
      </trkpt>
      <trkpt lat="50.38756" lon="3.08421">
        <ele>26</ele>
        <time>2021-11-08T13:32:28+01:00</time>
      </trkpt>
      <trkpt lat="50.38736" lon="3.08436">
        <ele>25</ele>
        <time>2021-11-08T13:32:46+01:00</time>
      </trkpt>
      <trkpt lat="50.38714" lon="3.08451">
        <ele>25</ele>
        <time>2021-11-08T13:33:04+01:00</time>
      </trkpt>
      <trkpt lat="50.38692" lon="3.08463">
        <ele>24</ele>
        <time>2021-11-08T13:33:30+01:00</time>
      </trkpt>
      <trkpt lat="50.38671" lon="3.08477">
        <ele>23</ele>
        <time>2021-11-08T13:33:48+01:00</time>
      </trkpt>
      <trkpt lat="50.38649" lon="3.08491">
        <ele>23</ele>
        <time>2021-11-08T13:34:09+01:00</time>
      </trkpt>
      <trkpt lat="50.38628" lon="3.08505">
        <ele>23</ele>
        <time>2021-11-08T13:34:27+01:00</time>
      </trkpt>
      <trkpt lat="50.38606" lon="3.08519">
        <ele>24</ele>
        <time>2021-11-08T13:34:44+01:00</time>
      </trkpt>
      <trkpt lat="50.38594" lon="3.0853">
        <ele>24</ele>
        <time>2021-12-11T10:40:27+01:00</time>
      </trkpt>
      <trkpt lat="50.38592" lon="3.08552">
        <ele>23</ele>
        <time>2021-11-08T13:35:00+01:00</time>
      </trkpt>
      <trkpt lat="50.3859" lon="3.08578">
        <ele>23</ele>
        <time>2021-11-08T13:35:18+01:00</time>
      </trkpt>
      <trkpt lat="50.38587" lon="3.08601">
        <ele>23</ele>
        <time>2021-12-11T10:40:42+01:00</time>
      </trkpt>
      <trkpt lat="50.38577" lon="3.08614">
        <ele>23</ele>
        <time>2021-11-08T13:35:41+01:00</time>
      </trkpt>
      <trkpt lat="50.38563" lon="3.08627">
        <ele>23</ele>
        <time>2021-11-08T13:35:59+01:00</time>
      </trkpt>
      <trkpt lat="50.38541" lon="3.0865">
        <ele>23</ele>
        <time>2021-11-08T13:36:22+01:00</time>
      </trkpt>
      <trkpt lat="50.38524" lon="3.08671">
        <ele>22</ele>
        <time>2021-11-08T13:36:39+01:00</time>
      </trkpt>
      <trkpt lat="50.38504" lon="3.08693">
        <ele>23</ele>
        <time>2021-11-08T13:36:59+01:00</time>
      </trkpt>
      <trkpt lat="50.38486" lon="3.08713">
        <ele>23</ele>
        <time>2021-11-08T13:37:16+01:00</time>
      </trkpt>
      <trkpt lat="50.38468" lon="3.08735">
        <ele>24</ele>
        <time>2021-11-08T13:37:36+01:00</time>
      </trkpt>
      <trkpt lat="50.38449" lon="3.08756">
        <ele>24</ele>
        <time>2021-11-08T13:37:58+01:00</time>
      </trkpt>
      <trkpt lat="50.38428" lon="3.08779">
        <ele>24</ele>
        <time>2021-11-08T13:38:17+01:00</time>
      </trkpt>
      <trkpt lat="50.3841" lon="3.08801">
        <ele>24</ele>
        <time>2021-11-08T13:38:33+01:00</time>
      </trkpt>
      <trkpt lat="50.38394" lon="3.08823">
        <ele>24</ele>
        <time>2021-11-08T13:38:53+01:00</time>
      </trkpt>
      <trkpt lat="50.38374" lon="3.08841">
        <ele>24</ele>
        <time>2021-11-08T13:39:23+01:00</time>
      </trkpt>
      <trkpt lat="50.38354" lon="3.08858">
        <ele>24</ele>
        <time>2021-11-08T13:40:37+01:00</time>
      </trkpt>
      <trkpt lat="50.38329" lon="3.08867">
        <ele>23</ele>
        <time>2021-11-08T13:41:58+01:00</time>
      </trkpt>
      <trkpt lat="50.38308" lon="3.08875">
        <ele>23</ele>
        <time>2021-11-08T13:42:18+01:00</time>
      </trkpt>
      <trkpt lat="50.38278" lon="3.08884">
        <ele>24</ele>
        <time>2021-11-08T13:51:09+01:00</time>
      </trkpt>
      <trkpt lat="50.38256" lon="3.08893">
        <ele>24</ele>
        <time>2021-11-08T13:52:01+01:00</time>
      </trkpt>
      <trkpt lat="50.38233" lon="3.08901">
        <ele>24</ele>
        <time>2021-11-08T13:52:23+01:00</time>
      </trkpt>
      <trkpt lat="50.38214" lon="3.08906">
        <ele>24</ele>
        <time>2021-11-08T13:52:46+01:00</time>
      </trkpt>
      <trkpt lat="50.38189" lon="3.08897">
        <ele>23</ele>
        <time>2021-11-08T13:53:07+01:00</time>
      </trkpt>
      <trkpt lat="50.38169" lon="3.08887">
        <ele>23</ele>
        <time>2021-11-08T13:53:41+01:00</time>
      </trkpt>
      <trkpt lat="50.38144" lon="3.08869">
        <ele>24</ele>
        <time>2021-11-08T13:54:19+01:00</time>
      </trkpt>
      <trkpt lat="50.3812" lon="3.08852">
        <ele>25</ele>
        <time>2021-11-08T13:54:39+01:00</time>
      </trkpt>
      <trkpt lat="50.38102" lon="3.08837">
        <ele>25</ele>
        <time>2021-11-08T13:54:56+01:00</time>
      </trkpt>
      <trkpt lat="50.38082" lon="3.08825">
        <ele>26</ele>
        <time>2021-11-08T13:55:17+01:00</time>
      </trkpt>
      <trkpt lat="50.38058" lon="3.08813">
        <ele>25</ele>
        <time>2021-11-08T13:55:37+01:00</time>
      </trkpt>
      <trkpt lat="50.38046" lon="3.08802">
        <ele>25</ele>
        <time>2021-11-08T13:55:53+01:00</time>
      </trkpt>
      <trkpt lat="50.38035" lon="3.08784">
        <ele>25</ele>
        <time>2021-12-11T10:43:02+01:00</time>
      </trkpt>
      <trkpt lat="50.38032" lon="3.08762">
        <ele>25</ele>
        <time>2021-11-08T13:56:09+01:00</time>
      </trkpt>
      <trkpt lat="50.38021" lon="3.08731">
        <ele>25</ele>
        <time>2021-11-08T13:56:27+01:00</time>
      </trkpt>
      <trkpt lat="50.38009" lon="3.087">
        <ele>24</ele>
        <time>2021-11-08T13:56:46+01:00</time>
      </trkpt>
      <trkpt lat="50.37997" lon="3.08666">
        <ele>24</ele>
        <time>2021-11-08T13:57:04+01:00</time>
      </trkpt>
      <trkpt lat="50.37988" lon="3.08636">
        <ele>24</ele>
        <time>2021-11-08T13:57:22+01:00</time>
      </trkpt>
      <trkpt lat="50.37981" lon="3.08605">
        <ele>24</ele>
        <time>2021-11-08T13:57:47+01:00</time>
      </trkpt>
      <trkpt lat="50.37967" lon="3.08578">
        <ele>24</ele>
        <time>2021-11-08T13:58:05+01:00</time>
      </trkpt>
      <trkpt lat="50.37949" lon="3.08556">
        <ele>23</ele>
        <time>2021-11-08T13:58:21+01:00</time>
      </trkpt>
      <trkpt lat="50.37927" lon="3.08533">
        <ele>23</ele>
        <time>2021-11-08T13:58:40+01:00</time>
      </trkpt>
      <trkpt lat="50.37907" lon="3.08519">
        <ele>22</ele>
        <time>2021-11-08T13:58:59+01:00</time>
      </trkpt>
      <trkpt lat="50.37887" lon="3.08504">
        <ele>22</ele>
        <time>2021-11-08T13:59:19+01:00</time>
      </trkpt>
      <trkpt lat="50.37872" lon="3.08493">
        <ele>23</ele>
        <time>2021-11-08T13:59:44+01:00</time>
      </trkpt>
      <trkpt lat="50.37879" lon="3.08457">
        <ele>23</ele>
        <time>2021-11-08T14:00:02+01:00</time>
      </trkpt>
      <trkpt lat="50.37884" lon="3.08428">
        <ele>23</ele>
        <time>2021-12-11T10:44:12+01:00</time>
      </trkpt>
      <trkpt lat="50.37892" lon="3.08389">
        <ele>24</ele>
        <time>2021-11-08T14:00:24+01:00</time>
      </trkpt>
      <trkpt lat="50.379" lon="3.08349">
        <ele>25</ele>
        <time>2021-11-08T14:00:43+01:00</time>
      </trkpt>
      <trkpt lat="50.37913" lon="3.08346">
        <ele>26</ele>
        <time>2021-12-11T10:44:27+01:00</time>
      </trkpt>
      <trkpt lat="50.37925" lon="3.08344">
        <ele>26</ele>
        <time>2021-11-08T14:01:59+01:00</time>
      </trkpt>
      <trkpt lat="50.37944" lon="3.08351">
        <ele>26</ele>
        <time>2021-11-08T14:02:18+01:00</time>
      </trkpt>
      <trkpt lat="50.37969" lon="3.08341">
        <ele>27</ele>
        <time>2021-11-08T14:02:50+01:00</time>
      </trkpt>
      <trkpt lat="50.37983" lon="3.0831">
        <ele>28</ele>
        <time>2021-11-08T14:03:11+01:00</time>
      </trkpt>
      <trkpt lat="50.38" lon="3.08282">
        <ele>28</ele>
        <time>2021-11-08T14:03:35+01:00</time>
      </trkpt>
      <trkpt lat="50.37996" lon="3.08254">
        <ele>28</ele>
        <time>2021-11-08T14:04:53+01:00</time>
      </trkpt>
      <trkpt lat="50.37992" lon="3.08222">
        <ele>28</ele>
        <time>2021-11-08T14:05:12+01:00</time>
      </trkpt>
      <trkpt lat="50.37982" lon="3.0819">
        <ele>29</ele>
        <time>2021-11-08T14:05:35+01:00</time>
      </trkpt>
      <trkpt lat="50.37964" lon="3.08167">
        <ele>29</ele>
        <time>2021-11-08T14:07:48+01:00</time>
      </trkpt>
      <trkpt lat="50.37947" lon="3.08143">
        <ele>29</ele>
        <time>2021-11-08T14:08:09+01:00</time>
      </trkpt>
      <trkpt lat="50.3793" lon="3.08119">
        <ele>29</ele>
        <time>2021-11-08T14:08:32+01:00</time>
      </trkpt>
      <trkpt lat="50.37912" lon="3.08123">
        <ele>28</ele>
        <time>2021-11-08T14:08:49+01:00</time>
      </trkpt>
      <trkpt lat="50.37897" lon="3.0814">
        <ele>28</ele>
        <time>2021-12-11T10:45:32+01:00</time>
      </trkpt>
      <trkpt lat="50.37887" lon="3.08175">
        <ele>28</ele>
        <time>2021-11-08T14:09:11+01:00</time>
      </trkpt>
      <trkpt lat="50.37897" lon="3.08207">
        <ele>28</ele>
        <time>2021-11-08T14:09:31+01:00</time>
      </trkpt>
      <trkpt lat="50.37915" lon="3.08213">
        <ele>28</ele>
        <time>2021-11-08T14:09:49+01:00</time>
      </trkpt>
      <trkpt lat="50.3793" lon="3.08236">
        <ele>28</ele>
        <time>2021-11-08T14:10:14+01:00</time>
      </trkpt>
      <trkpt lat="50.37942" lon="3.08263">
        <ele>28</ele>
        <time>2021-12-11T10:45:57+01:00</time>
      </trkpt>
      <trkpt lat="50.37938" lon="3.08286">
        <ele>27</ele>
        <time>2021-11-08T14:10:30+01:00</time>
      </trkpt>
      <trkpt lat="50.3793" lon="3.08316">
        <ele>27</ele>
        <time>2021-11-08T14:10:51+01:00</time>
      </trkpt>
      <trkpt lat="50.37917" lon="3.08341">
        <ele>26</ele>
        <time>2021-11-08T14:11:38+01:00</time>
      </trkpt>
      <trkpt lat="50.37898" lon="3.08345">
        <ele>25</ele>
        <time>2021-11-08T14:12:00+01:00</time>
      </trkpt>
      <trkpt lat="50.3789" lon="3.08384">
        <ele>24</ele>
        <time>2021-11-08T14:12:16+01:00</time>
      </trkpt>
      <trkpt lat="50.37883" lon="3.08421">
        <ele>24</ele>
        <time>2021-11-08T14:12:34+01:00</time>
      </trkpt>
      <trkpt lat="50.37875" lon="3.08463">
        <ele>23</ele>
        <time>2021-11-08T14:12:54+01:00</time>
      </trkpt>
      <trkpt lat="50.37868" lon="3.0849">
        <ele>23</ele>
        <time>2021-11-08T14:13:34+01:00</time>
      </trkpt>
      <trkpt lat="50.37844" lon="3.08476">
        <ele>23</ele>
        <time>2021-11-08T14:13:56+01:00</time>
      </trkpt>
      <trkpt lat="50.37821" lon="3.08462">
        <ele>23</ele>
        <time>2021-11-08T14:14:16+01:00</time>
      </trkpt>
      <trkpt lat="50.378" lon="3.0845">
        <ele>24</ele>
        <time>2021-11-08T14:14:34+01:00</time>
      </trkpt>
      <trkpt lat="50.3778" lon="3.08435">
        <ele>25</ele>
        <time>2021-11-08T14:14:54+01:00</time>
      </trkpt>
      <trkpt lat="50.37761" lon="3.08425">
        <ele>26</ele>
        <time>2021-11-08T14:15:16+01:00</time>
      </trkpt>
      <trkpt lat="50.37743" lon="3.08414">
        <ele>26</ele>
        <time>2021-12-11T10:47:07+01:00</time>
      </trkpt>
      <trkpt lat="50.37738" lon="3.08441">
        <ele>26</ele>
        <time>2021-11-08T14:16:30+01:00</time>
      </trkpt>
      <trkpt lat="50.37734" lon="3.08464">
        <ele>26</ele>
        <time>2021-12-11T10:47:17+01:00</time>
      </trkpt>
      <trkpt lat="50.37758" lon="3.08481">
        <ele>26</ele>
        <time>2021-11-08T14:17:34+01:00</time>
      </trkpt>
      <trkpt lat="50.37778" lon="3.08494">
        <ele>25</ele>
        <time>2021-11-08T14:17:53+01:00</time>
      </trkpt>
      <trkpt lat="50.37799" lon="3.08507">
        <ele>24</ele>
        <time>2021-11-08T14:18:13+01:00</time>
      </trkpt>
      <trkpt lat="50.37822" lon="3.08521">
        <ele>24</ele>
        <time>2021-11-08T14:18:36+01:00</time>
      </trkpt>
      <trkpt lat="50.37842" lon="3.08534">
        <ele>24</ele>
        <time>2021-11-08T14:18:57+01:00</time>
      </trkpt>
      <trkpt lat="50.37862" lon="3.08548">
        <ele>24</ele>
        <time>2021-11-08T14:19:28+01:00</time>
      </trkpt>
      <trkpt lat="50.37881" lon="3.08565">
        <ele>24</ele>
        <time>2021-11-08T14:19:49+01:00</time>
      </trkpt>
      <trkpt lat="50.37899" lon="3.0858">
        <ele>23</ele>
        <time>2021-11-08T14:20:22+01:00</time>
      </trkpt>
      <trkpt lat="50.37916" lon="3.08597">
        <ele>23</ele>
        <time>2021-11-08T14:20:53+01:00</time>
      </trkpt>
      <trkpt lat="50.37931" lon="3.08613">
        <ele>23</ele>
        <time>2021-11-08T14:21:12+01:00</time>
      </trkpt>
      <trkpt lat="50.37947" lon="3.08634">
        <ele>24</ele>
        <time>2021-11-08T14:21:28+01:00</time>
      </trkpt>
      <trkpt lat="50.37963" lon="3.08659">
        <ele>24</ele>
        <time>2021-11-08T14:21:45+01:00</time>
      </trkpt>
      <trkpt lat="50.37972" lon="3.08696">
        <ele>24</ele>
        <time>2021-12-11T10:48:22+01:00</time>
      </trkpt>
      <trkpt lat="50.37982" lon="3.08731">
        <ele>25</ele>
        <time>2021-11-08T14:22:02+01:00</time>
      </trkpt>
      <trkpt lat="50.37991" lon="3.08764">
        <ele>25</ele>
        <time>2021-11-08T14:22:18+01:00</time>
      </trkpt>
      <trkpt lat="50.38001" lon="3.08794">
        <ele>25</ele>
        <time>2021-11-08T14:22:37+01:00</time>
      </trkpt>
      <trkpt lat="50.38014" lon="3.08818">
        <ele>25</ele>
        <time>2021-11-08T14:22:52+01:00</time>
      </trkpt>
      <trkpt lat="50.38029" lon="3.08836">
        <ele>25</ele>
        <time>2021-11-08T14:23:16+01:00</time>
      </trkpt>
      <trkpt lat="50.38045" lon="3.08859">
        <ele>25</ele>
        <time>2021-11-08T14:23:38+01:00</time>
      </trkpt>
      <trkpt lat="50.38057" lon="3.08867">
        <ele>25</ele>
        <time>2021-11-08T14:23:54+01:00</time>
      </trkpt>
      <trkpt lat="50.38083" lon="3.08883">
        <ele>25</ele>
        <time>2021-11-08T14:24:11+01:00</time>
      </trkpt>
      <trkpt lat="50.3811" lon="3.08899">
        <ele>24</ele>
        <time>2021-11-08T14:24:30+01:00</time>
      </trkpt>
      <trkpt lat="50.38131" lon="3.08913">
        <ele>24</ele>
        <time>2021-11-08T14:25:01+01:00</time>
      </trkpt>
      <trkpt lat="50.38155" lon="3.08929">
        <ele>23</ele>
        <time>2021-11-08T14:25:18+01:00</time>
      </trkpt>
      <trkpt lat="50.38181" lon="3.08942">
        <ele>24</ele>
        <time>2021-11-08T14:26:00+01:00</time>
      </trkpt>
      <trkpt lat="50.38198" lon="3.08949">
        <ele>24</ele>
        <time>2021-11-08T14:26:15+01:00</time>
      </trkpt>
      <trkpt lat="50.38217" lon="3.08951">
        <ele>24</ele>
        <time>2021-11-08T14:26:37+01:00</time>
      </trkpt>
      <trkpt lat="50.38238" lon="3.08946">
        <ele>24</ele>
        <time>2021-11-08T14:26:55+01:00</time>
      </trkpt>
      <trkpt lat="50.38265" lon="3.08942">
        <ele>24</ele>
        <time>2021-11-08T14:27:08+01:00</time>
      </trkpt>
      <trkpt lat="50.38284" lon="3.08933">
        <ele>24</ele>
        <time>2021-11-08T14:27:25+01:00</time>
      </trkpt>
      <trkpt lat="50.38311" lon="3.08921">
        <ele>24</ele>
        <time>2021-11-08T14:27:39+01:00</time>
      </trkpt>
      <trkpt lat="50.38334" lon="3.08916">
        <ele>24</ele>
        <time>2021-11-08T14:27:54+01:00</time>
      </trkpt>
      <trkpt lat="50.38353" lon="3.0891">
        <ele>24</ele>
        <time>2021-11-08T14:28:12+01:00</time>
      </trkpt>
      <trkpt lat="50.38374" lon="3.08901">
        <ele>24</ele>
        <time>2021-11-08T14:28:31+01:00</time>
      </trkpt>
      <trkpt lat="50.38394" lon="3.08887">
        <ele>25</ele>
        <time>2021-11-08T14:28:51+01:00</time>
      </trkpt>
      <trkpt lat="50.3842" lon="3.08878">
        <ele>25</ele>
        <time>2021-11-08T14:29:12+01:00</time>
      </trkpt>
      <trkpt lat="50.38436" lon="3.08867">
        <ele>25</ele>
        <time>2021-11-08T14:29:32+01:00</time>
      </trkpt>
      <trkpt lat="50.38455" lon="3.0886">
        <ele>25</ele>
        <time>2021-12-11T10:50:27+01:00</time>
      </trkpt>
      <trkpt lat="50.38475" lon="3.08857">
        <ele>26</ele>
        <time>2021-11-08T14:29:57+01:00</time>
      </trkpt>
      <trkpt lat="50.38492" lon="3.08861">
        <ele>26</ele>
        <time>2021-11-08T14:30:12+01:00</time>
      </trkpt>
      <trkpt lat="50.385" lon="3.08891">
        <ele>25</ele>
        <time>2021-11-08T14:30:41+01:00</time>
      </trkpt>
      <trkpt lat="50.38504" lon="3.08923">
        <ele>24</ele>
        <time>2021-11-08T14:30:53+01:00</time>
      </trkpt>
      <trkpt lat="50.38505" lon="3.08948">
        <ele>23</ele>
        <time>2021-11-08T14:31:11+01:00</time>
      </trkpt>
      <trkpt lat="50.3851" lon="3.08987">
        <ele>22</ele>
        <time>2021-11-08T14:31:49+01:00</time>
      </trkpt>
      <trkpt lat="50.38517" lon="3.09029">
        <ele>21</ele>
        <time>2021-11-08T14:32:08+01:00</time>
      </trkpt>
      <trkpt lat="50.38518" lon="3.09065">
        <ele>21</ele>
        <time>2021-12-11T10:51:07+01:00</time>
      </trkpt>
      <trkpt lat="50.38501" lon="3.09068">
        <ele>21</ele>
        <time>2021-11-08T14:34:13+01:00</time>
      </trkpt>
      <trkpt lat="50.3848" lon="3.09063">
        <ele>21</ele>
        <time>2021-11-08T14:34:31+01:00</time>
      </trkpt>
      <trkpt lat="50.38451" lon="3.09054">
        <ele>22</ele>
        <time>2021-11-08T14:34:53+01:00</time>
      </trkpt>
      <trkpt lat="50.38426" lon="3.09046">
        <ele>23</ele>
        <time>2021-11-08T14:35:10+01:00</time>
      </trkpt>
      <trkpt lat="50.38403" lon="3.0904">
        <ele>23</ele>
        <time>2021-11-08T14:35:28+01:00</time>
      </trkpt>
      <trkpt lat="50.38379" lon="3.09037">
        <ele>23</ele>
        <time>2021-11-08T14:35:48+01:00</time>
      </trkpt>
      <trkpt lat="50.38357" lon="3.09038">
        <ele>23</ele>
        <time>2021-11-08T14:36:07+01:00</time>
      </trkpt>
      <trkpt lat="50.38335" lon="3.09041">
        <ele>23</ele>
        <time>2021-11-08T14:36:24+01:00</time>
      </trkpt>
      <trkpt lat="50.38314" lon="3.09048">
        <ele>23</ele>
        <time>2021-11-08T14:36:43+01:00</time>
      </trkpt>
      <trkpt lat="50.38295" lon="3.09055">
        <ele>23</ele>
        <time>2021-12-11T10:51:57+01:00</time>
      </trkpt>
      <trkpt lat="50.3829" lon="3.09071">
        <ele>23</ele>
        <time>2021-11-08T14:36:58+01:00</time>
      </trkpt>
      <trkpt lat="50.38282" lon="3.09093">
        <ele>23</ele>
        <time>2021-11-08T14:37:18+01:00</time>
      </trkpt>
      <trkpt lat="50.3827" lon="3.09126">
        <ele>23</ele>
        <time>2021-11-08T14:37:43+01:00</time>
      </trkpt>
      <trkpt lat="50.38261" lon="3.09151">
        <ele>23</ele>
        <time>2021-11-08T14:38:05+01:00</time>
      </trkpt>
      <trkpt lat="50.38251" lon="3.09179">
        <ele>23</ele>
        <time>2021-11-08T14:38:25+01:00</time>
      </trkpt>
      <trkpt lat="50.38243" lon="3.09204">
        <ele>23</ele>
        <time>2021-12-11T10:52:27+01:00</time>
      </trkpt>
      <trkpt lat="50.38228" lon="3.09201">
        <ele>23</ele>
        <time>2021-11-08T14:38:47+01:00</time>
      </trkpt>
    </trkseg>
  </trk>
</gpx>